Algona, Iowa
Current Conditions -  °F | °C
As of 4:15 AM on Wednesday 26 Nov 2014 (Local Time) from KAXA Reporting Station
Light Snow Light Snow  
Wind Chill: -10°   Ceiling: 1500
Heat Index: -3°   Visibility: 1.5mi
Dew Point: -3°   Wind: 15mph
Humidity: 100%   Direction: 130°SE
Pressure: 29.88"   Gusts: 24mph
Location:  43.07°N, 94.23°W
Report Text: KAXA 261015Z AUTO 13013G21KT 1 1/2SM -SN FEW006 BKN015 BKN023 M03/M03 A2988 RMK AO2
Loading
Personal Weather Stations






























Interactive Weather Map New forecast layout! Learn more

10-Day Weather Forecast

Advertisements
Track Severe Weather on mobile